createdAt,value
2023-03-07T00:00:09.881Z,48.12
2023-03-07T00:02:11.210Z,48.82
2023-03-07T00:04:12.581Z,48.81
2023-03-07T00:06:13.894Z,48.54
2023-03-07T00:08:15.221Z,49.04
2023-03-07T00:10:16.620Z,49.02
2023-03-07T00:12:17.933Z,49.24
2023-03-07T00:14:19.279Z,49.04
2023-03-07T00:16:20.696Z,49.29
2023-03-07T00:18:22.019Z,49.73
2023-03-07T00:20:23.321Z,49.85
2023-03-07T00:22:24.646Z,50.19
2023-03-07T00:24:25.961Z,50.63
2023-03-07T00:26:27.329Z,50.76
2023-03-07T00:28:28.634Z,50.88
2023-03-07T00:30:29.997Z,51.43
2023-03-07T00:32:31.349Z,51.79
2023-03-07T00:34:32.793Z,51.65
2023-03-07T00:36:34.136Z,51.30
2023-03-07T00:38:35.461Z,51.80
2023-03-07T00:40:36.868Z,51.89
2023-03-07T00:42:38.218Z,52.00
2023-03-07T00:44:39.525Z,52.32
2023-03-07T00:46:40.880Z,52.18
2023-03-07T00:48:42.218Z,52.52
2023-03-07T00:50:43.563Z,52.40
2023-03-07T00:52:44.893Z,52.31
2023-03-07T00:54:46.200Z,52.63
2023-03-07T00:56:47.573Z,53.03
2023-03-07T00:58:48.984Z,52.68
2023-03-07T01:00:50.481Z,52.46
2023-03-07T01:02:51.783Z,52.58
2023-03-07T01:04:53.109Z,52.43
2023-03-07T01:06:54.412Z,52.22
2023-03-07T01:08:55.747Z,52.48
2023-03-07T01:10:57.048Z,51.89
2023-03-07T01:12:58.350Z,51.49
2023-03-07T01:14:59.688Z,51.58
2023-03-07T01:17:00.988Z,51.24
2023-03-07T01:19:02.299Z,51.11
2023-03-07T01:21:03.663Z,50.95
2023-03-07T01:23:05.029Z,50.61
2023-03-07T01:25:06.328Z,50.40
2023-03-07T01:27:07.640Z,50.61
2023-03-07T01:29:09.020Z,50.32
2023-03-07T01:31:10.357Z,50.60
2023-03-07T01:33:11.660Z,50.28
2023-03-07T01:35:12.960Z,50.62
2023-03-07T01:37:14.256Z,50.85
2023-03-07T01:39:15.781Z,50.87
2023-03-07T01:41:17.132Z,50.78
2023-03-07T01:43:18.436Z,50.29
2023-03-07T01:45:19.736Z,50.41
2023-03-07T01:47:21.040Z,50.69
2023-03-07T01:49:22.387Z,50.15
2023-03-07T01:51:23.787Z,50.42
2023-03-07T01:53:25.092Z,50.39
2023-03-07T01:55:26.398Z,50.66
2023-03-07T01:57:27.771Z,50.68
2023-03-07T01:59:29.290Z,51.07
2023-03-07T02:01:30.707Z,50.70
2023-03-07T02:03:32.119Z,50.80
2023-03-07T02:05:33.508Z,50.95
2023-03-07T02:07:34.876Z,51.45
2023-03-07T02:09:36.176Z,51.28
2023-03-07T02:11:37.520Z,51.21
2023-03-07T02:13:38.867Z,51.17
2023-03-07T02:15:40.189Z,51.27
2023-03-07T02:17:41.495Z,51.53
2023-03-07T02:19:42.825Z,51.95
2023-03-07T02:21:44.137Z,51.63
2023-03-07T02:23:45.513Z,51.61
2023-03-07T02:25:46.821Z,51.81
2023-03-07T02:27:48.116Z,51.69
2023-03-07T02:29:49.411Z,51.41
2023-03-07T02:31:50.753Z,51.41
2023-03-07T02:33:52.064Z,51.14
2023-03-07T02:35:53.406Z,51.04
2023-03-07T02:37:54.728Z,50.77
2023-03-07T02:39:56.057Z,50.66
2023-03-07T02:41:57.427Z,51.16
2023-03-07T02:43:58.936Z,50.82
2023-03-07T02:46:00.304Z,50.54
2023-03-07T02:48:01.624Z,50.40
2023-03-07T02:50:02.932Z,50.78
2023-03-07T02:52:04.296Z,50.69
2023-03-07T02:54:05.593Z,50.80
2023-03-07T02:56:07.014Z,50.54
2023-03-07T02:58:08.365Z,51.14
2023-03-07T03:00:12.114Z,50.81
2023-03-07T03:02:13.433Z,51.10
2023-03-07T03:04:14.733Z,51.17
2023-03-07T03:06:16.087Z,50.96
2023-03-07T03:08:17.391Z,50.98
2023-03-07T03:10:18.865Z,51.29
2023-03-07T03:12:20.188Z,51.10
2023-03-07T03:14:21.505Z,51.05
2023-03-07T03:16:22.926Z,51.24
2023-03-07T03:18:24.328Z,51.69
2023-03-07T03:20:25.952Z,51.45
2023-03-07T03:22:27.309Z,51.62
2023-03-07T03:24:28.651Z,51.55
2023-03-07T03:26:29.960Z,51.73
2023-03-07T03:28:31.261Z,51.50
2023-03-07T03:30:35.696Z,51.72
2023-03-07T03:32:37.077Z,51.67
2023-03-07T03:34:38.563Z,51.96
2023-03-07T03:36:39.859Z,51.55
2023-03-07T03:38:41.197Z,52.42
2023-03-07T03:40:42.496Z,52.46
2023-03-07T03:42:44.044Z,51.96
2023-03-07T03:44:45.416Z,51.86
2023-03-07T03:46:46.767Z,51.85
2023-03-07T03:48:48.076Z,51.42
2023-03-07T03:50:49.382Z,51.57
2023-03-07T03:52:50.680Z,51.55
2023-03-07T03:54:52.028Z,51.01
2023-03-07T03:56:53.347Z,50.92
2023-03-07T03:58:55.234Z,50.63
2023-03-07T04:00:56.534Z,50.65
2023-03-07T04:02:57.972Z,50.19
2023-03-07T04:04:59.393Z,49.84
2023-03-07T04:07:00.728Z,48.60
2023-03-07T04:09:03.549Z,48.21
2023-03-07T04:11:05.021Z,47.81
2023-03-07T04:13:06.342Z,47.61
2023-03-07T04:15:07.724Z,47.71
2023-03-07T04:17:09.056Z,47.87
2023-03-07T04:19:12.777Z,47.76
2023-03-07T04:21:14.157Z,47.52
2023-03-07T04:23:15.463Z,47.78
2023-03-07T04:25:16.795Z,47.15
2023-03-07T04:27:18.141Z,47.31
2023-03-07T04:29:19.439Z,47.37
2023-03-07T04:31:20.766Z,47.22
2023-03-07T04:33:22.133Z,47.72
2023-03-07T04:35:23.492Z,47.48
2023-03-07T04:37:24.840Z,47.63
2023-03-07T04:39:26.136Z,47.53
2023-03-07T04:41:27.498Z,47.53
2023-03-07T04:43:28.801Z,47.59
2023-03-07T04:45:30.102Z,47.73
2023-03-07T04:47:31.396Z,48.11
2023-03-07T04:49:32.704Z,47.73
2023-03-07T04:51:34.007Z,48.15
2023-03-07T04:53:35.336Z,48.24
2023-03-07T04:55:36.632Z,48.22
2023-03-07T04:57:37.940Z,48.40
2023-03-07T04:59:39.632Z,48.47
2023-03-07T05:01:41.040Z,48.31
2023-03-07T05:03:42.393Z,48.73
2023-03-07T05:05:43.779Z,48.50
2023-03-07T05:07:45.080Z,48.55
2023-03-07T05:09:46.408Z,48.92
2023-03-07T05:11:47.769Z,48.80
2023-03-07T05:13:49.111Z,48.96
2023-03-07T05:15:50.646Z,49.07
2023-03-07T05:17:51.960Z,49.27
2023-03-07T05:19:56.341Z,49.39
2023-03-07T05:21:57.714Z,49.32
2023-03-07T05:23:59.052Z,48.99
2023-03-07T05:26:00.377Z,49.12
2023-03-07T05:28:01.815Z,48.97
2023-03-07T05:30:03.488Z,48.95
2023-03-07T05:32:04.996Z,48.67
2023-03-07T05:34:06.378Z,48.48
2023-03-07T05:36:07.844Z,48.37
2023-03-07T05:38:09.151Z,47.85
2023-03-07T05:40:14.009Z,47.80
2023-03-07T05:42:15.672Z,47.58
2023-03-07T05:44:17.000Z,47.33
2023-03-07T05:46:18.342Z,47.49
2023-03-07T05:48:19.692Z,47.38
2023-03-07T05:50:21.135Z,47.27
2023-03-07T05:52:22.432Z,46.89
2023-03-07T05:54:23.762Z,46.70
2023-03-07T05:56:25.127Z,46.75
2023-03-07T05:58:26.475Z,46.98
2023-03-07T06:00:27.760Z,46.62
2023-03-07T06:02:29.148Z,46.55
2023-03-07T06:04:30.522Z,46.73
2023-03-07T06:06:31.851Z,47.05
2023-03-07T06:08:33.143Z,46.91
2023-03-07T06:10:34.826Z,47.04
2023-03-07T06:12:36.284Z,47.27
2023-03-07T06:14:37.603Z,47.31
2023-03-07T06:16:38.904Z,47.39
2023-03-07T06:18:40.386Z,47.32
2023-03-07T06:20:41.771Z,47.46
2023-03-07T06:22:43.102Z,47.48
2023-03-07T06:24:44.448Z,47.57
2023-03-07T06:26:45.764Z,47.63
2023-03-07T06:28:47.071Z,47.77
2023-03-07T06:30:48.382Z,47.67
2023-03-07T06:32:49.715Z,47.88
2023-03-07T06:34:51.061Z,47.82
2023-03-07T06:36:52.371Z,47.89
2023-03-07T06:38:53.673Z,47.91
2023-03-07T06:40:55.007Z,48.03
2023-03-07T06:42:56.310Z,48.02
2023-03-07T06:44:57.731Z,47.85
2023-03-07T06:46:59.239Z,48.13
2023-03-07T06:49:00.644Z,47.97
2023-03-07T06:51:02.213Z,47.84
2023-03-07T06:53:03.612Z,47.99
2023-03-07T06:55:04.944Z,47.77
2023-03-07T06:57:06.247Z,47.62
2023-03-07T06:59:07.578Z,47.58
2023-03-07T07:01:10.956Z,47.52
2023-03-07T07:03:12.339Z,47.53
2023-03-07T07:05:13.720Z,47.26
2023-03-07T07:07:15.019Z,47.07
2023-03-07T07:09:16.328Z,46.94
2023-03-07T07:11:17.662Z,46.91
2023-03-07T07:13:18.995Z,46.64
2023-03-07T07:15:20.296Z,46.52
2023-03-07T07:17:21.853Z,46.65
2023-03-07T07:19:23.167Z,46.64
2023-03-07T07:21:24.471Z,46.09
2023-03-07T07:23:27.159Z,46.11
2023-03-07T07:25:28.462Z,46.23
2023-03-07T07:27:29.966Z,46.56
2023-03-07T07:29:31.299Z,46.29
2023-03-07T07:31:32.769Z,46.61
2023-03-07T07:33:34.200Z,46.24
2023-03-07T07:35:35.529Z,46.54
2023-03-07T07:37:36.895Z,46.51
2023-03-07T07:39:40.798Z,46.60
2023-03-07T07:41:42.439Z,46.44
2023-03-07T07:43:45.416Z,46.49
2023-03-07T07:45:46.787Z,46.30
2023-03-07T07:47:48.107Z,46.63
2023-03-07T07:49:52.470Z,46.67
2023-03-07T07:51:53.780Z,47.00
2023-03-07T07:53:55.123Z,47.09
2023-03-07T07:55:56.464Z,46.84
2023-03-07T07:57:57.792Z,47.08
2023-03-07T07:59:59.153Z,47.00
2023-03-07T08:02:00.525Z,47.00
2023-03-07T08:04:01.897Z,47.01
2023-03-07T08:06:03.219Z,47.17
2023-03-07T08:08:04.545Z,47.14
2023-03-07T08:10:05.949Z,46.96
2023-03-07T08:12:07.406Z,46.79
2023-03-07T08:14:09.404Z,47.00
2023-03-07T08:16:10.832Z,46.89
2023-03-07T08:18:12.431Z,46.79
2023-03-07T08:20:13.775Z,46.73
2023-03-07T08:22:15.137Z,46.62
2023-03-07T08:24:16.709Z,46.53
2023-03-07T08:26:18.038Z,46.30
2023-03-07T08:28:19.339Z,46.21
2023-03-07T08:30:20.750Z,45.88
2023-03-07T08:32:22.142Z,45.81
2023-03-07T08:34:23.507Z,45.76
2023-03-07T08:36:25.419Z,45.56
2023-03-07T08:38:27.914Z,45.67
2023-03-07T08:40:29.379Z,45.73
2023-03-07T08:42:30.795Z,45.42
2023-03-07T08:44:32.162Z,45.46
2023-03-07T08:46:33.542Z,45.41
2023-03-07T08:48:34.853Z,45.76
2023-03-07T08:50:36.167Z,45.66
2023-03-07T08:52:37.781Z,45.54
2023-03-07T08:54:39.136Z,45.97
2023-03-07T08:56:40.420Z,45.65
2023-03-07T08:58:41.818Z,45.42
2023-03-07T09:00:43.218Z,46.12
2023-03-07T09:02:44.578Z,45.84
2023-03-07T09:04:45.958Z,45.76
2023-03-07T09:06:47.287Z,45.73
2023-03-07T09:08:48.618Z,46.19
2023-03-07T09:10:50.065Z,46.04
2023-03-07T09:12:51.422Z,46.46
2023-03-07T09:14:53.207Z,46.11
2023-03-07T09:16:54.554Z,45.76
2023-03-07T09:18:55.870Z,46.68
2023-03-07T09:20:57.163Z,46.52
2023-03-07T09:22:58.528Z,46.54
2023-03-07T09:24:59.916Z,46.40
2023-03-07T09:27:01.212Z,46.60
2023-03-07T09:29:02.510Z,46.58
2023-03-07T09:31:03.836Z,46.66
2023-03-07T09:33:05.281Z,46.54
2023-03-07T09:35:06.595Z,46.48
2023-03-07T09:37:07.915Z,46.54
2023-03-07T09:39:14.450Z,46.56
2023-03-07T09:41:16.179Z,46.49
2023-03-07T09:43:17.601Z,46.37
2023-03-07T09:45:18.903Z,46.37
2023-03-07T09:47:20.241Z,45.62
2023-03-07T09:49:21.535Z,45.58
2023-03-07T09:51:23.027Z,45.89
2023-03-07T09:53:24.374Z,45.85
2023-03-07T09:55:25.688Z,45.30
2023-03-07T09:57:26.993Z,45.19
2023-03-07T09:59:28.340Z,45.08
2023-03-07T10:01:29.642Z,45.43
2023-03-07T10:03:31.019Z,45.05
2023-03-07T10:05:32.482Z,44.97
2023-03-07T10:07:33.840Z,44.95
2023-03-07T10:09:35.133Z,44.98
2023-03-07T10:11:36.487Z,44.89
2023-03-07T10:13:37.862Z,45.31
2023-03-07T10:15:39.230Z,45.17
2023-03-07T10:17:40.543Z,45.39
2023-03-07T10:19:42.300Z,45.55
2023-03-07T10:21:43.596Z,45.71
2023-03-07T10:23:44.916Z,45.57
2023-03-07T10:25:46.325Z,45.90
2023-03-07T10:27:47.791Z,45.79
2023-03-07T10:29:49.237Z,46.00
2023-03-07T10:31:50.612Z,45.88
2023-03-07T10:33:52.028Z,45.73
2023-03-07T10:35:53.388Z,45.85
2023-03-07T10:37:54.744Z,46.30
2023-03-07T10:39:56.307Z,46.13
2023-03-07T10:41:57.632Z,46.45
2023-03-07T10:43:58.966Z,46.31
2023-03-07T10:46:00.472Z,46.50
2023-03-07T10:48:02.190Z,46.43
2023-03-07T10:50:03.508Z,46.53
2023-03-07T10:52:04.937Z,46.43
2023-03-07T10:54:06.285Z,46.33
2023-03-07T10:56:07.621Z,46.32
2023-03-07T10:58:11.909Z,46.32
2023-03-07T11:00:13.200Z,46.58
2023-03-07T11:02:14.504Z,46.40
2023-03-07T11:04:15.816Z,46.33
2023-03-07T11:06:17.163Z,46.31
2023-03-07T11:08:18.501Z,46.15
2023-03-07T11:10:19.813Z,45.96
2023-03-07T11:12:21.148Z,45.99
2023-03-07T11:14:22.586Z,45.60
2023-03-07T11:16:25.761Z,45.68
2023-03-07T11:18:27.195Z,45.48
2023-03-07T11:20:30.315Z,45.27
2023-03-07T11:22:36.524Z,45.63
2023-03-07T11:24:38.023Z,45.41
2023-03-07T11:26:42.365Z,45.24
2023-03-07T11:28:43.714Z,45.01
2023-03-07T11:30:45.090Z,44.98
2023-03-07T11:32:46.543Z,45.31
2023-03-07T11:34:49.327Z,44.85
2023-03-07T11:36:50.690Z,45.37
2023-03-07T11:38:52.019Z,45.27
2023-03-07T11:40:53.356Z,44.88
2023-03-07T11:42:54.744Z,45.31
2023-03-07T11:44:56.071Z,45.15
2023-03-07T11:46:57.429Z,45.17
2023-03-07T11:48:58.748Z,45.33
2023-03-07T11:51:00.160Z,45.14
2023-03-07T11:53:01.489Z,45.18
2023-03-07T11:55:02.808Z,45.27
2023-03-07T11:57:04.990Z,45.45
2023-03-07T11:59:06.298Z,45.68
2023-03-07T12:01:07.745Z,45.69
2023-03-07T12:03:09.132Z,45.53
2023-03-07T12:05:10.483Z,45.84
2023-03-07T12:07:12.248Z,45.64
2023-03-07T12:09:13.640Z,45.89
2023-03-07T12:11:14.979Z,45.61
2023-03-07T12:13:16.325Z,45.87
2023-03-07T12:15:20.632Z,45.83
2023-03-07T12:17:21.941Z,46.20
2023-03-07T12:19:23.287Z,45.86
2023-03-07T12:21:24.662Z,46.01
2023-03-07T12:23:25.977Z,46.10
2023-03-07T12:25:28.958Z,45.92
2023-03-07T12:27:30.409Z,46.00
2023-03-07T12:29:31.828Z,46.16
2023-03-07T12:31:33.222Z,46.03
2023-03-07T12:33:34.755Z,45.95
2023-03-07T12:35:36.173Z,45.89
2023-03-07T12:37:37.512Z,45.64
2023-03-07T12:39:38.828Z,45.77
2023-03-07T12:41:40.474Z,45.57
2023-03-07T12:43:41.847Z,45.41
2023-03-07T12:45:46.212Z,45.44
2023-03-07T12:47:47.612Z,45.24
2023-03-07T12:49:50.229Z,45.45
2023-03-07T12:51:51.794Z,45.35
2023-03-07T12:53:53.645Z,45.15
2023-03-07T12:55:54.968Z,45.03
2023-03-07T12:57:56.358Z,44.89
2023-03-07T12:59:57.698Z,45.33
2023-03-07T13:02:00.244Z,45.22
2023-03-07T13:04:02.302Z,45.00
2023-03-07T13:06:03.684Z,45.30
2023-03-07T13:08:05.052Z,45.18
2023-03-07T13:10:06.417Z,45.19
2023-03-07T13:12:07.733Z,45.23
2023-03-07T13:14:12.073Z,45.14
2023-03-07T13:16:13.465Z,45.29
2023-03-07T13:18:14.809Z,45.15
2023-03-07T13:20:18.958Z,45.15
2023-03-07T13:22:23.280Z,45.12
2023-03-07T13:24:24.590Z,45.27
2023-03-07T13:26:25.910Z,45.40
2023-03-07T13:28:27.235Z,45.23
2023-03-07T13:30:31.492Z,45.17
2023-03-07T13:32:32.884Z,45.52
2023-03-07T13:34:34.216Z,45.38
2023-03-07T13:36:35.572Z,45.43
2023-03-07T13:38:36.981Z,45.45
2023-03-07T13:40:38.329Z,45.49
2023-03-07T13:42:39.673Z,45.54
2023-03-07T13:44:41.023Z,45.17
2023-03-07T13:46:42.381Z,45.34
2023-03-07T13:48:43.711Z,45.52
2023-03-07T13:50:45.059Z,45.63
2023-03-07T13:52:49.668Z,45.63
2023-03-07T13:54:51.034Z,45.69
2023-03-07T13:56:52.380Z,45.67
2023-03-07T13:58:55.743Z,45.74
2023-03-07T14:00:57.369Z,45.85
2023-03-07T14:02:58.776Z,45.85
2023-03-07T14:05:00.132Z,46.17
2023-03-07T14:07:01.442Z,46.64
2023-03-07T14:09:05.244Z,46.31
2023-03-07T14:11:06.876Z,47.49
2023-03-07T14:13:09.384Z,46.36
2023-03-07T14:15:10.702Z,47.07
2023-03-07T14:17:12.014Z,47.38
2023-03-07T14:19:13.331Z,45.81
2023-03-07T14:21:14.680Z,46.25
2023-03-07T14:23:16.002Z,46.67
2023-03-07T14:25:17.469Z,45.98
2023-03-07T14:27:21.818Z,46.05
2023-03-07T14:29:23.257Z,46.65
2023-03-07T14:31:25.347Z,45.73
2023-03-07T14:33:26.740Z,46.03
2023-03-07T14:35:28.091Z,46.26
2023-03-07T14:37:29.452Z,46.21
2023-03-07T14:39:30.776Z,45.30
2023-03-07T14:41:36.614Z,45.59
2023-03-07T14:43:37.937Z,46.08
2023-03-07T14:45:39.609Z,46.40
2023-03-07T14:47:41.006Z,46.50
2023-03-07T14:49:42.365Z,45.95
2023-03-07T14:51:43.786Z,46.03
2023-03-07T14:53:50.979Z,46.79
2023-03-07T14:55:52.645Z,46.34
2023-03-07T14:57:54.728Z,46.59
2023-03-07T14:59:56.066Z,46.71
2023-03-07T15:01:57.547Z,46.92
2023-03-07T15:03:58.994Z,46.50
2023-03-07T15:06:00.335Z,46.46
2023-03-07T15:08:05.091Z,46.60
2023-03-07T15:10:06.536Z,46.71
2023-03-07T15:12:07.952Z,46.38
2023-03-07T15:14:09.274Z,46.81
2023-03-07T15:16:10.630Z,46.33
2023-03-07T15:18:12.001Z,46.28
2023-03-07T15:20:13.322Z,46.32
2023-03-07T15:22:14.648Z,46.42
2023-03-07T15:24:15.999Z,46.40
2023-03-07T15:26:21.225Z,46.58
2023-03-07T15:28:22.687Z,46.61
2023-03-07T15:30:24.061Z,46.77
2023-03-07T15:32:25.452Z,46.67
2023-03-07T15:34:27.073Z,47.04
2023-03-07T15:36:31.116Z,47.01
2023-03-07T15:38:32.680Z,46.58
2023-03-07T15:40:34.053Z,46.70
2023-03-07T15:42:38.424Z,47.06
2023-03-07T15:44:39.735Z,46.63
2023-03-07T15:46:41.089Z,47.10
2023-03-07T15:48:43.444Z,46.85
2023-03-07T15:50:44.927Z,47.05
2023-03-07T15:52:46.241Z,46.81
2023-03-07T15:54:47.736Z,46.95
2023-03-07T15:56:49.060Z,47.04
2023-03-07T15:58:50.377Z,46.88
2023-03-07T16:00:51.712Z,47.30
2023-03-07T16:02:56.212Z,47.10
2023-03-07T16:04:57.543Z,47.06
2023-03-07T16:07:02.224Z,47.54
2023-03-07T16:09:03.797Z,47.06
2023-03-07T16:11:08.019Z,47.25
2023-03-07T16:13:09.388Z,47.24
2023-03-07T16:15:10.704Z,47.89
2023-03-07T16:17:24.552Z,47.94
2023-03-07T16:19:25.896Z,48.28
2023-03-07T16:21:27.247Z,48.04
2023-03-07T16:23:31.178Z,48.21
2023-03-07T16:25:32.943Z,48.61
2023-03-07T16:27:34.272Z,48.56
2023-03-07T16:29:35.609Z,48.47
2023-03-07T16:31:36.946Z,48.59
2023-03-07T16:33:38.400Z,48.68
2023-03-07T16:35:42.837Z,48.64
2023-03-07T16:37:47.249Z,49.12
2023-03-07T16:39:48.648Z,48.56
2023-03-07T16:41:52.983Z,48.05
2023-03-07T16:43:57.248Z,46.91
2023-03-07T16:45:58.726Z,46.79
2023-03-07T16:48:00.385Z,47.45
2023-03-07T16:50:01.802Z,47.28
2023-03-07T16:52:06.516Z,47.74
2023-03-07T16:54:08.100Z,47.53
2023-03-07T16:56:09.424Z,47.96
2023-03-07T16:58:10.779Z,47.83
2023-03-07T17:00:12.258Z,47.83
2023-03-07T17:02:13.622Z,47.39
2023-03-07T17:04:14.983Z,48.08
2023-03-07T17:06:16.533Z,48.43
2023-03-07T17:08:17.971Z,47.32
2023-03-07T17:10:19.286Z,46.82
2023-03-07T17:12:20.613Z,46.13
2023-03-07T17:14:21.932Z,45.88
2023-03-07T17:16:23.280Z,46.72
2023-03-07T17:18:26.727Z,47.05
2023-03-07T17:20:28.094Z,46.77
2023-03-07T17:22:29.416Z,47.09
2023-03-07T17:24:31.034Z,47.19
2023-03-07T17:26:32.855Z,47.16
2023-03-07T17:28:34.403Z,47.01
2023-03-07T17:30:35.797Z,47.71
2023-03-07T17:32:41.001Z,48.51
2023-03-07T17:34:42.400Z,48.26
2023-03-07T17:36:43.725Z,47.25
2023-03-07T17:38:45.072Z,47.95
2023-03-07T17:40:46.511Z,47.64
2023-03-07T17:42:51.121Z,47.78
2023-03-07T17:44:52.481Z,48.30
2023-03-07T17:46:53.799Z,48.26
2023-03-07T17:48:55.146Z,48.93
2023-03-07T17:50:56.728Z,48.62
2023-03-07T17:52:58.106Z,48.40
2023-03-07T17:54:59.467Z,49.04
2023-03-07T17:57:01.078Z,46.64
2023-03-07T17:59:02.460Z,47.85
2023-03-07T18:01:03.812Z,47.97
2023-03-07T18:03:05.680Z,47.86
2023-03-07T18:05:07.494Z,48.74
2023-03-07T18:07:08.819Z,48.34
2023-03-07T18:09:15.129Z,48.21
2023-03-07T18:11:16.489Z,47.32
2023-03-07T18:13:18.165Z,47.29
2023-03-07T18:15:19.952Z,48.14
2023-03-07T18:17:22.056Z,47.69
2023-03-07T18:19:27.028Z,47.34
2023-03-07T18:21:29.865Z,47.92
2023-03-07T18:23:31.330Z,47.75
2023-03-07T18:25:32.684Z,48.30
2023-03-07T18:27:33.996Z,47.33
2023-03-07T18:29:35.292Z,47.89
2023-03-07T18:31:37.083Z,48.19
2023-03-07T18:33:41.464Z,48.60
2023-03-07T18:35:43.803Z,47.22
2023-03-07T18:37:45.575Z,48.08
2023-03-07T18:39:47.007Z,48.18
2023-03-07T18:41:48.327Z,47.73
2023-03-07T18:43:49.805Z,48.69
2023-03-07T18:45:53.048Z,47.74
2023-03-07T18:47:54.375Z,47.39
2023-03-07T18:49:57.655Z,47.53
2023-03-07T18:51:59.052Z,48.49
2023-03-07T18:54:00.405Z,47.74
2023-03-07T18:56:01.713Z,47.22
2023-03-07T18:58:03.067Z,47.34
2023-03-07T19:00:05.389Z,47.32
2023-03-07T19:02:06.784Z,47.38
2023-03-07T19:04:09.202Z,47.33
2023-03-07T19:06:10.590Z,47.46
2023-03-07T19:08:11.936Z,47.30
2023-03-07T19:10:19.006Z,47.49
2023-03-07T19:12:20.344Z,47.77
2023-03-07T19:14:24.849Z,47.81
2023-03-07T19:16:29.085Z,48.50
2023-03-07T19:18:30.472Z,48.90
2023-03-07T19:20:31.776Z,48.14
2023-03-07T19:22:33.619Z,48.28
2023-03-07T19:24:34.956Z,48.41
2023-03-07T19:26:36.314Z,48.71
2023-03-07T19:28:37.708Z,48.82
2023-03-07T19:30:39.131Z,48.98
2023-03-07T19:32:40.725Z,48.50
2023-03-07T19:34:42.211Z,47.99
2023-03-07T19:36:43.565Z,48.48
2023-03-07T19:38:44.894Z,48.77
2023-03-07T19:40:46.217Z,48.15
2023-03-07T19:42:47.616Z,48.76
2023-03-07T19:44:48.971Z,48.29
2023-03-07T19:46:50.370Z,49.16
2023-03-07T19:48:51.732Z,48.30
2023-03-07T19:50:53.057Z,48.20
2023-03-07T19:53:04.720Z,48.03
2023-03-07T19:55:06.061Z,47.80
2023-03-07T19:57:09.196Z,47.92
2023-03-07T19:59:10.551Z,47.89
2023-03-07T20:01:11.987Z,47.85
2023-03-07T20:03:13.480Z,48.14
2023-03-07T20:05:14.896Z,47.88
2023-03-07T20:07:16.341Z,47.80
2023-03-07T20:09:20.330Z,48.16
2023-03-07T20:11:21.681Z,47.88
2023-03-07T20:13:23.423Z,48.25
2023-03-07T20:15:24.781Z,47.96
2023-03-07T20:17:26.196Z,48.32
2023-03-07T20:19:27.576Z,47.72
2023-03-07T20:21:28.972Z,47.82
2023-03-07T20:23:30.368Z,47.91
2023-03-07T20:25:31.761Z,48.20
2023-03-07T20:27:33.089Z,48.03
2023-03-07T20:29:34.747Z,48.42
2023-03-07T20:31:36.430Z,48.74
2023-03-07T20:33:37.875Z,48.43
2023-03-07T20:35:39.297Z,48.31
2023-03-07T20:37:40.658Z,48.28
2023-03-07T20:39:43.686Z,48.21
2023-03-07T20:41:50.858Z,48.39
2023-03-07T20:43:52.194Z,48.45
2023-03-07T20:45:53.535Z,47.89
2023-03-07T20:47:58.014Z,47.95
2023-03-07T20:50:02.182Z,47.92
2023-03-07T20:52:03.585Z,49.01
2023-03-07T20:54:04.993Z,48.18
2023-03-07T20:56:06.342Z,47.58
2023-03-07T20:58:08.221Z,46.91
2023-03-07T21:00:09.570Z,47.25
2023-03-07T21:02:11.737Z,47.85
2023-03-07T21:04:16.031Z,48.28
2023-03-07T21:06:17.352Z,48.59
2023-03-07T21:08:18.688Z,49.00
2023-03-07T21:10:20.017Z,47.31
2023-03-07T21:12:21.394Z,46.73
2023-03-07T21:14:22.773Z,46.23
2023-03-07T21:16:25.153Z,46.67
2023-03-07T21:18:26.592Z,47.95
2023-03-07T21:20:27.960Z,46.39
2023-03-07T21:22:29.339Z,46.53
2023-03-07T21:24:33.575Z,46.69
2023-03-07T21:26:35.947Z,47.56
2023-03-07T21:28:37.290Z,47.34
2023-03-07T21:30:38.633Z,47.71
2023-03-07T21:32:40.987Z,48.28
2023-03-07T21:34:42.384Z,48.15
2023-03-07T21:36:55.914Z,48.25
2023-03-07T21:39:00.496Z,48.41
2023-03-07T21:41:01.828Z,48.87
2023-03-07T21:43:03.148Z,49.24
2023-03-07T21:45:04.481Z,49.83
2023-03-07T21:47:08.901Z,50.21
2023-03-07T21:49:10.283Z,49.98
2023-03-07T21:51:11.655Z,50.10
2023-03-07T21:53:22.151Z,50.11
2023-03-07T21:55:26.321Z,50.55
2023-03-07T21:57:27.653Z,50.06
2023-03-07T21:59:29.303Z,41.53
2023-03-07T22:01:30.749Z,41.14
2023-03-07T22:03:32.354Z,44.20
2023-03-07T22:05:33.685Z,43.47
2023-03-07T22:07:35.065Z,43.21
2023-03-07T22:09:36.428Z,43.42
2023-03-07T22:11:37.752Z,44.21
2023-03-07T22:13:39.816Z,44.30
2023-03-07T22:15:41.210Z,44.98
2023-03-07T22:17:42.534Z,45.00
2023-03-07T22:19:43.874Z,45.59
2023-03-07T22:21:45.392Z,45.41
2023-03-07T22:23:46.745Z,45.53
2023-03-07T22:25:48.096Z,45.49
2023-03-07T22:27:49.416Z,45.61
2023-03-07T22:29:50.810Z,46.02
2023-03-07T22:31:52.227Z,45.80
2023-03-07T22:33:53.672Z,45.97
2023-03-07T22:35:55.093Z,46.30
2023-03-07T22:37:56.469Z,46.52
2023-03-07T22:39:57.797Z,46.50
2023-03-07T22:41:59.141Z,47.00
2023-03-07T22:44:00.534Z,47.01
2023-03-07T22:46:02.266Z,46.60
2023-03-07T22:48:03.677Z,47.35
2023-03-07T22:50:05.756Z,47.09
2023-03-07T22:52:07.131Z,47.45
2023-03-07T22:54:08.799Z,47.71
2023-03-07T22:56:10.215Z,48.04
2023-03-07T22:58:11.580Z,48.02
2023-03-07T23:00:12.890Z,48.24
2023-03-07T23:02:14.215Z,48.17
2023-03-07T23:04:15.623Z,48.12
2023-03-07T23:06:17.008Z,48.10
2023-03-07T23:08:21.326Z,49.08
2023-03-07T23:10:22.690Z,49.38
2023-03-07T23:12:24.067Z,48.95
2023-03-07T23:14:25.382Z,49.15
2023-03-07T23:16:26.709Z,49.60
2023-03-07T23:18:28.038Z,49.74
2023-03-07T23:20:30.303Z,49.58
2023-03-07T23:22:31.646Z,49.68
2023-03-07T23:24:32.976Z,49.83
2023-03-07T23:26:34.394Z,50.20
2023-03-07T23:28:35.822Z,50.16
2023-03-07T23:30:37.217Z,50.27
2023-03-07T23:32:38.676Z,50.52
2023-03-07T23:34:40.020Z,50.13
2023-03-07T23:36:41.391Z,51.43
2023-03-07T23:38:42.921Z,50.72
2023-03-07T23:40:44.292Z,51.36
2023-03-07T23:42:45.608Z,50.07
2023-03-07T23:44:46.939Z,50.56
2023-03-07T23:46:48.284Z,50.46
2023-03-07T23:48:49.637Z,50.71
2023-03-07T23:50:50.979Z,50.07
2023-03-07T23:52:52.343Z,50.25
2023-03-07T23:54:53.686Z,50.15
2023-03-07T23:56:55.090Z,49.81
2023-03-07T23:58:56.444Z,50.22
